Time;durP1;ratioP1;P1;durP2;ratioP2;P2;SDS_P1;SDS_P2;PMS_P1;PMS_P2;Temp;Humidity;BMP_temperature;BMP_pressure;BME280_temperature;BME280_humidity;BME280_pressure;Samples;Min_cycle;Max_cycle;Signal;HPM_P1;HPM_P2
2022/11/10 00:01:49;;;;;;;2.58;1.30;;;17.00;68.60;;;;;;5052930;28;20171;-51
2022/11/10 00:04:14;;;;;;;3.13;1.30;;;17.00;68.60;;;;;;5052547;28;20175;-56
2022/11/10 00:06:40;;;;;;;2.50;1.23;;;17.00;68.80;;;;;;5052021;28;20521;-55
2022/11/10 00:09:06;;;;;;;1.73;1.00;;;17.00;68.90;;;;;;5052291;28;20175;-55
2022/11/10 00:11:32;;;;;;;1.38;1.10;;;17.00;69.10;;;;;;5052663;28;20211;-53
2022/11/10 00:16:59;;;;;;;1.80;1.02;;;16.90;69.20;;;;;;5053039;28;20638;-54
2022/11/10 00:19:28;;;;;;;1.90;1.10;;;16.90;69.20;;;;;;5052666;28;20197;-56
2022/11/10 00:21:54;;;;;;;1.02;1.00;;;16.90;69.30;;;;;;5052147;28;20179;-56
2022/11/10 00:24:19;;;;;;;2.25;1.27;;;16.90;69.40;;;;;;5052537;28;20546;-53
2022/11/10 00:26:45;;;;;;;1.60;1.02;;;16.90;69.30;;;;;;5052868;28;20225;-50
2022/11/10 00:29:11;;;;;;;1.58;1.15;;;16.90;69.20;;;;;;5051641;28;20190;-53
2022/11/10 00:31:37;;;;;;;2.25;1.20;;;16.90;69.20;;;;;;5052412;28;20696;-55
2022/11/10 00:34:02;;;;;;;2.03;1.40;;;16.90;69.10;;;;;;5052142;28;20187;-52
2022/11/10 00:36:28;;;;;;;1.80;1.05;;;16.80;68.90;;;;;;5051780;28;20175;-55
2022/11/10 00:38:53;;;;;;;2.60;1.30;;;16.90;68.90;;;;;;5054953;28;20202;-52
2022/11/10 00:41:19;;;;;;;1.98;1.35;;;16.80;68.90;;;;;;5055569;28;20513;-54
2022/11/10 00:43:44;;;;;;;1.35;1.25;;;16.80;69.20;;;;;;5056870;28;20183;-51
2022/11/10 00:46:10;;;;;;;3.38;1.70;;;16.80;68.60;;;;;;5056034;28;20630;-55
2022/11/10 00:48:35;;;;;;;1.90;1.40;;;16.80;68.60;;;;;;5055694;28;20182;-55
2022/11/10 00:51:01;;;;;;;1.55;1.10;;;16.80;68.70;;;;;;5055988;28;20217;-51
2022/11/10 00:53:27;;;;;;;2.88;1.70;;;16.80;68.60;;;;;;5056686;28;20232;-54
2022/11/10 00:55:52;;;;;;;1.85;1.20;;;16.80;68.50;;;;;;5055775;28;20664;-53
2022/11/10 00:58:18;;;;;;;1.40;1.30;;;16.80;68.60;;;;;;5056146;28;20579;-54
2022/11/10 01:00:43;;;;;;;2.20;1.10;;;16.70;68.50;;;;;;5056397;28;20618;-53
2022/11/10 01:03:15;;;;;;;2.85;1.20;;;16.70;68.50;;;;;;5055360;28;20171;-55
2022/11/10 01:05:41;;;;;;;3.42;1.38;;;16.80;68.50;;;;;;5056477;28;20186;-56
2022/11/10 01:08:07;;;;;;;2.25;1.13;;;16.80;68.50;;;;;;5055945;28;20168;-54
2022/11/10 01:10:32;;;;;;;2.85;1.27;;;16.80;68.60;;;;;;5055133;28;20322;-56
2022/11/10 01:12:58;;;;;;;1.58;1.33;;;16.70;68.50;;;;;;5055953;28;20258;-53
2022/11/10 01:15:23;;;;;;;3.05;1.20;;;16.70;68.40;;;;;;5056255;28;20553;-54
2022/11/10 01:17:50;;;;;;;2.20;1.10;;;16.70;68.40;;;;;;5055194;28;20186;-50
2022/11/10 01:20:15;;;;;;;2.03;1.23;;;16.70;68.40;;;;;;5055537;28;20642;-56
2022/11/10 01:22:41;;;;;;;3.38;1.40;;;16.70;68.50;;;;;;5056041;28;20211;-55
2022/11/10 01:25:07;;;;;;;2.20;1.45;;;16.70;68.40;;;;;;5054974;28;20634;-54
2022/11/10 01:27:32;;;;;;;2.97;1.50;;;16.70;68.40;;;;;;5055724;28;20665;-56
2022/11/10 01:29:58;;;;;;;1.85;1.55;;;16.70;68.30;;;;;;5055394;28;20182;-56
2022/11/10 01:32:23;;;;;;;2.50;1.40;;;16.70;68.40;;;;;;5054975;28;20182;-50
2022/11/10 01:34:49;;;;;;;2.05;1.25;;;16.70;68.40;;;;;;5055838;28;20182;-53
2022/11/10 01:37:15;;;;;;;2.22;1.17;;;16.60;69.20;;;;;;5055319;28;20586;-50
2022/11/10 01:39:40;;;;;;;2.38;1.23;;;16.70;68.30;;;;;;5054911;28;20174;-52
2022/11/10 01:42:06;;;;;;;2.17;1.45;;;16.70;68.30;;;;;;5055069;28;20545;-53
2022/11/10 01:44:33;;;;;;;1.88;1.58;;;16.70;68.30;;;;;;5055435;28;20634;-55
2022/11/10 01:46:58;;;;;;;3.25;1.50;;;16.60;68.20;;;;;;5054288;28;20650;-52
2022/11/10 01:49:26;;;;;;;2.00;1.25;;;16.60;68.20;;;;;;5054308;28;20212;-49
2022/11/10 01:52:12;;;;;;;1.77;1.38;;;16.70;68.30;;;;;;5036638;28;20222;-55
2022/11/10 01:54:43;;;;;;;3.17;1.45;;;16.60;68.20;;;;;;5055398;28;20254;-54
2022/11/10 01:57:09;;;;;;;2.45;1.63;;;16.60;68.20;;;;;;5054899;28;20646;-56
2022/11/10 01:59:39;;;;;;;2.00;1.40;;;16.60;68.20;;;;;;5053283;28;20179;-56
2022/11/10 02:02:15;;;;;;;1.73;1.45;;;16.60;68.10;;;;;;5053770;28;20198;-54
2022/11/10 02:04:41;;;;;;;3.67;1.50;;;16.60;68.10;;;;;;5038278;28;20185;-52
2022/11/10 02:07:06;;;;;;;2.13;1.20;;;16.60;68.10;;;;;;5052819;28;20171;-51
2022/11/10 02:09:32;;;;;;;3.50;1.60;;;16.60;68.10;;;;;;5053440;28;20222;-54
2022/11/10 02:11:58;;;;;;;2.00;1.30;;;16.60;68.10;;;;;;5054476;28;20257;-57
2022/11/10 02:14:23;;;;;;;2.70;1.40;;;16.60;68.20;;;;;;5054474;28;20224;-56
2022/11/10 02:16:49;;;;;;;1.60;1.13;;;16.60;69.10;;;;;;5053943;28;20209;-52
2022/11/10 02:19:24;;;;;;;3.25;1.30;;;16.60;69.10;;;;;;5054677;28;20174;-54
2022/11/10 02:21:49;;;;;;;2.97;1.33;;;16.60;68.20;;;;;;5054028;28;20179;-54
2022/11/10 02:24:15;;;;;;;2.47;1.70;;;16.60;68.20;;;;;;5054292;28;20653;-53
2022/11/10 02:27:00;;;;;;;2.45;1.38;;;16.60;68.20;;;;;;5054547;28;20190;-55
2022/11/10 02:29:25;;;;;;;4.10;1.30;;;16.60;68.20;;;;;;5053768;28;20179;-55
2022/11/10 02:31:51;;;;;;;2.40;1.30;;;16.60;68.20;;;;;;5054541;28;20215;-54
2022/11/10 02:34:17;;;;;;;2.50;1.40;;;16.60;68.20;;;;;;5053565;28;20197;-57
2022/11/10 02:36:42;;;;;;;3.88;1.50;;;16.60;68.20;;;;;;5054513;28;20179;-54
2022/11/10 02:39:08;;;;;;;2.58;1.30;;;16.50;68.20;;;;;;5053983;28;20250;-56
2022/11/10 02:41:33;;;;;;;2.35;1.50;;;16.60;68.20;;;;;;5053725;28;20182;-56
2022/11/10 02:43:59;;;;;;;2.85;1.63;;;16.50;68.10;;;;;;5053967;28;20278;-56
2022/11/10 02:46:24;;;;;;;5.30;1.60;;;16.50;68.10;;;;;;5054238;28;20220;-57
2022/11/10 02:48:50;;;;;;;2.60;1.17;;;16.50;68.10;;;;;;5053505;28;20661;-57
2022/11/10 02:51:15;;;;;;;3.05;1.65;;;16.50;68.10;;;;;;5053628;28;20332;-57
2022/11/10 02:53:41;;;;;;;2.28;1.42;;;16.60;68.10;;;;;;5054043;28;20171;-54
2022/11/10 02:56:07;;;;;;;1.45;1.15;;;16.50;68.10;;;;;;5053347;28;20175;-56
2022/11/10 02:58:32;;;;;;;3.13;1.88;;;16.50;68.20;;;;;;5054061;28;20254;-56
2022/11/10 03:00:58;;;;;;;2.83;1.55;;;16.50;68.10;;;;;;5053537;28;20174;-57
2022/11/10 03:03:23;;;;;;;4.38;1.50;;;16.50;68.20;;;;;;5053189;28;20585;-56
2022/11/10 03:05:49;;;;;;;2.40;1.33;;;16.50;68.20;;;;;;5053833;28;20166;-57
2022/11/10 03:08:14;;;;;;;2.72;1.20;;;16.50;68.20;;;;;;5053280;28;20266;-58
2022/11/10 03:10:40;;;;;;;3.15;1.67;;;16.50;69.10;;;;;;5052794;28;20321;-58
2022/11/10 03:13:05;;;;;;;2.88;1.02;;;16.50;68.20;;;;;;5053643;28;20175;-58
2022/11/10 03:15:31;;;;;;;2.38;1.42;;;16.50;68.10;;;;;;5053810;28;20623;-56
2022/11/10 03:18:00;;;;;;;1.58;1.40;;;16.50;68.20;;;;;;5052834;28;20606;-56
2022/11/10 03:20:26;;;;;;;2.25;1.30;;;16.50;68.10;;;;;;5036237;28;20267;-55
2022/11/10 03:22:51;;;;;;;3.05;1.38;;;16.50;68.10;;;;;;5053507;28;20183;-56
2022/11/10 03:25:17;;;;;;;2.33;1.65;;;16.50;68.10;;;;;;5052418;28;20383;-53
2022/11/10 03:27:42;;;;;;;3.00;1.58;;;16.50;69.10;;;;;;5053731;28;20266;-56
2022/11/10 03:30:09;;;;;;;2.55;1.50;;;16.50;68.20;;;;;;5052562;28;20221;-56
2022/11/10 03:32:34;;;;;;;1.73;1.25;;;16.50;68.10;;;;;;5053417;28;20187;-56
2022/11/10 03:35:00;;;;;;;2.45;1.40;;;16.50;68.30;;;;;;5053201;28;20266;-56
2022/11/10 03:37:25;;;;;;;2.60;1.17;;;16.50;68.20;;;;;;5052502;28;20175;-57
2022/11/10 03:39:51;;;;;;;3.05;1.65;;;16.50;68.20;;;;;;5053533;28;20179;-56
2022/11/10 03:42:16;;;;;;;3.30;1.50;;;16.50;68.30;;;;;;5052895;28;20213;-57
2022/11/10 03:44:42;;;;;;;1.80;1.55;;;16.50;68.20;;;;;;5052639;28;20186;-57
2022/11/10 03:47:07;;;;;;;2.20;1.60;;;16.50;68.30;;;;;;5052871;28;20171;-57
2022/11/10 03:49:33;;;;;;;3.17;1.58;;;16.50;68.20;;;;;;5053118;28;20559;-57
2022/11/10 03:51:58;;;;;;;2.13;1.40;;;16.50;68.20;;;;;;5051758;28;20217;-53
2022/11/10 03:54:24;;;;;;;2.70;1.48;;;16.50;68.20;;;;;;5053328;28;20182;-57
2022/11/10 03:56:49;;;;;;;6.13;1.67;;;16.50;68.20;;;;;;5053179;28;20175;-53
2022/11/10 03:59:15;;;;;;;3.45;1.95;;;16.50;68.30;;;;;;5052012;28;20176;-55
2022/11/10 04:01:40;;;;;;;2.35;1.50;;;16.50;68.30;;;;;;5052821;28;20167;-56
2022/11/10 04:08:57;;;;;;;4.22;1.83;;;16.40;68.30;;;;;;5052476;28;20175;-54
2022/11/10 04:09:38;;;;;;;2.20;1.27;;;16.40;68.30;;;;;;5052581;28;20225;-56
2022/11/10 04:17:32;;;;;;;2.53;1.50;;;16.40;69.00;;;;;;5052562;28;20252;-55
2022/11/10 04:19:57;;;;;;;2.03;1.10;;;16.40;68.30;;;;;;5051575;28;20634;-55
2022/11/10 04:25:07;;;;;;;2.58;1.45;;;16.40;68.20;;;;;;5052291;28;20653;-54
2022/11/10 04:27:32;;;;;;;2.28;1.27;;;16.40;68.20;;;;;;5051743;28;20179;-54
2022/11/10 04:29:58;;;;;;;1.40;1.17;;;16.40;68.30;;;;;;5052155;28;20204;-55
2022/11/10 04:32:23;;;;;;;1.50;1.35;;;16.40;68.30;;;;;;5052439;28;20207;-54
2022/11/10 04:34:49;;;;;;;4.22;1.85;;;16.40;68.30;;;;;;5051638;28;20268;-54
2022/11/10 04:37:14;;;;;;;2.13;1.10;;;16.40;68.30;;;;;;5051836;28;20703;-53
2022/11/10 04:39:40;;;;;;;2.40;1.60;;;16.40;68.30;;;;;;5052065;28;20202;-50
2022/11/10 04:42:05;;;;;;;1.95;1.45;;;16.40;68.20;;;;;;5051118;28;20312;-54
2022/11/10 04:44:31;;;;;;;1.73;1.35;;;16.40;68.20;;;;;;5052422;28;20171;-55
2022/11/10 04:46:56;;;;;;;2.50;1.40;;;16.40;68.20;;;;;;5051930;28;20224;-54
2022/11/10 04:49:22;;;;;;;2.33;1.40;;;16.40;68.30;;;;;;5051365;28;20171;-53
2022/11/10 04:51:48;;;;;;;3.50;1.60;;;16.40;68.30;;;;;;5052133;28;20215;-52
2022/11/10 04:54:13;;;;;;;1.60;1.20;;;16.40;68.30;;;;;;5051577;28;20262;-55
2022/11/10 04:56:39;;;;;;;3.70;1.48;;;16.40;68.30;;;;;;5051310;28;20388;-54
2022/11/10 04:59:04;;;;;;;2.13;1.40;;;16.40;68.30;;;;;;5051972;28;20258;-53
2022/11/10 05:01:30;;;;;;;1.10;1.02;;;16.40;68.30;;;;;;5051951;28;20658;-52
2022/11/10 05:03:55;;;;;;;2.28;1.33;;;16.40;68.30;;;;;;5050351;28;20176;-53
2022/11/10 05:06:21;;;;;;;1.65;1.08;;;16.40;68.20;;;;;;5051877;28;20267;-50
2022/11/10 05:08:46;;;;;;;2.17;1.27;;;16.30;68.20;;;;;;5051276;28;20174;-51
2022/11/10 05:11:12;;;;;;;3.40;1.70;;;16.30;68.20;;;;;;5051408;28;20238;-54
2022/11/10 05:13:38;;;;;;;3.30;1.60;;;16.40;68.30;;;;;;5052180;28;20163;-55
2022/11/10 05:16:04;;;;;;;2.53;1.38;;;16.30;68.30;;;;;;5051180;28;20262;-56
2022/11/10 05:18:29;;;;;;;2.72;1.23;;;16.30;68.30;;;;;;5052222;28;20266;-54
2022/11/10 05:20:55;;;;;;;3.47;1.42;;;16.40;68.30;;;;;;5052034;28;20179;-53
2022/11/10 05:23:39;;;;;;;2.83;1.55;;;16.30;68.30;;;;;;5050758;28;20184;-54
2022/11/10 05:26:06;;;;;;;2.00;1.40;;;16.30;68.30;;;;;;5055401;28;20646;-53
2022/11/10 05:28:32;;;;;;;2.80;1.50;;;16.30;68.20;;;;;;5055848;28;20345;-55
2022/11/10 05:30:57;;;;;;;3.85;1.45;;;16.30;68.20;;;;;;5054300;28;20610;-51
2022/11/10 05:33:23;;;;;;;3.13;1.48;;;16.30;68.30;;;;;;5055552;28;20202;-54
2022/11/10 05:35:49;;;;;;;2.00;1.27;;;16.30;68.30;;;;;;5055528;28;20178;-55
2022/11/10 05:38:15;;;;;;;2.47;1.35;;;16.30;68.30;;;;;;5054342;28;20175;-55
2022/11/10 05:40:40;;;;;;;2.83;1.42;;;16.30;68.20;;;;;;5055570;28;20174;-55
2022/11/10 05:43:06;;;;;;;3.88;1.60;;;16.30;68.30;;;;;;5055453;28;20179;-54
2022/11/10 05:45:32;;;;;;;3.35;1.52;;;16.30;68.40;;;;;;5054766;28;20256;-53
2022/11/10 05:47:57;;;;;;;3.10;1.42;;;16.30;68.40;;;;;;5055084;28;20686;-55
2022/11/10 05:50:23;;;;;;;2.53;1.13;;;16.30;68.30;;;;;;5055122;28;20289;-55
2022/11/10 05:52:50;;;;;;;3.33;1.38;;;16.30;68.30;;;;;;5054409;28;20179;-56
2022/11/10 05:55:17;;;;;;;2.50;1.48;;;16.30;68.40;;;;;;5055108;28;20179;-55
2022/11/10 05:57:43;;;;;;;2.05;1.33;;;16.30;68.30;;;;;;5055400;28;20190;-55
2022/11/10 06:00:10;;;;;;;2.72;1.48;;;16.30;68.30;;;;;;5054084;28;20185;-55
2022/11/10 06:02:35;;;;;;;1.63;1.20;;;16.30;68.40;;;;;;5053987;28;20175;-54
2022/11/10 06:05:01;;;;;;;2.78;1.27;;;16.30;68.40;;;;;;5054058;28;20665;-55
2022/11/10 06:07:26;;;;;;;2.13;1.30;;;16.30;68.30;;;;;;5054771;28;20175;-56
2022/11/10 06:09:52;;;;;;;2.58;1.38;;;16.30;68.40;;;;;;5054805;28;20215;-55
2022/11/10 06:12:17;;;;;;;3.35;1.40;;;16.20;68.30;;;;;;5054089;28;20210;-58
2022/11/10 06:14:43;;;;;;;2.90;1.60;;;16.30;68.30;;;;;;5055014;28;20203;-54
2022/11/10 06:17:08;;;;;;;4.25;1.80;;;16.20;68.20;;;;;;5054516;28;20194;-51
2022/11/10 06:19:34;;;;;;;3.60;1.20;;;16.30;68.40;;;;;;5054055;28;20195;-54
2022/11/10 06:21:59;;;;;;;1.45;1.30;;;16.20;68.20;;;;;;5054131;28;20259;-51
2022/11/10 06:24:25;;;;;;;3.08;1.70;;;16.20;69.10;;;;;;5054879;28;20615;-52
2022/11/10 06:26:50;;;;;;;3.65;1.63;;;16.30;68.40;;;;;;5053894;28;20585;-54
2022/11/10 06:29:16;;;;;;;2.30;1.33;;;16.20;68.30;;;;;;5054252;28;20211;-50
2022/11/10 06:31:41;;;;;;;2.35;1.30;;;16.20;68.40;;;;;;5054525;28;20301;-53
2022/11/10 06:34:07;;;;;;;1.83;1.30;;;16.20;68.50;;;;;;5053507;28;20171;-52
2022/11/10 06:36:32;;;;;;;2.35;1.73;;;16.20;68.30;;;;;;5053708;28;20182;-54
2022/11/10 06:38:58;;;;;;;3.20;1.80;;;16.20;68.30;;;;;;5054163;28;20171;-52
2022/11/10 06:41:23;;;;;;;2.28;1.35;;;16.20;68.50;;;;;;5053714;28;20172;-55
2022/11/10 06:43:49;;;;;;;1.77;1.25;;;16.20;68.50;;;;;;5054382;28;20190;-57
2022/11/10 06:46:14;;;;;;;2.97;1.40;;;16.20;68.40;;;;;;5053788;28;20218;-54
2022/11/10 06:48:40;;;;;;;2.55;1.70;;;16.20;68.40;;;;;;5053261;28;20217;-52
2022/11/10 06:51:05;;;;;;;2.28;1.48;;;16.20;68.50;;;;;;5053549;28;20540;-53
2022/11/10 06:53:31;;;;;;;3.22;1.70;;;16.20;68.50;;;;;;5053966;28;20175;-54
2022/11/10 06:55:56;;;;;;;3.10;1.27;;;16.20;68.50;;;;;;5053140;28;20190;-54
2022/11/10 06:58:22;;;;;;;2.25;1.20;;;16.20;68.50;;;;;;5053710;28;20220;-53
2022/11/10 07:00:47;;;;;;;2.13;1.20;;;16.20;68.50;;;;;;5053596;28;20176;-51
2022/11/10 07:03:13;;;;;;;3.63;1.63;;;16.20;68.50;;;;;;5052397;28;20171;-53
2022/11/10 07:05:39;;;;;;;1.13;1.08;;;16.20;68.50;;;;;;5053818;28;20175;-50
2022/11/10 07:08:15;;;;;;;1.58;1.20;;;16.20;68.50;;;;;;5053419;28;20622;-53
2022/11/10 07:10:44;;;;;;;2.78;1.20;;;16.20;68.60;;;;;;5053468;28;20261;-55
2022/11/10 07:13:10;;;;;;;2.35;1.35;;;16.20;68.30;;;;;;5053162;28;20267;-54
2022/11/10 07:15:35;;;;;;;3.53;1.65;;;16.30;68.30;;;;;;5052913;28;20265;-52
2022/11/10 07:18:01;;;;;;;2.45;1.42;;;16.30;68.10;;;;;;5053213;28;20217;-52
2022/11/10 07:20:27;;;;;;;3.00;1.60;;;16.40;68.00;;;;;;5053328;28;20171;-55
2022/11/10 07:23:00;;;;;;;2.83;1.50;;;16.40;67.80;;;;;;5053186;28;20179;-53
2022/11/10 07:25:26;;;;;;;2.53;1.10;;;16.60;67.70;;;;;;5053728;28;20171;-53
2022/11/10 07:27:56;;;;;;;4.80;1.58;;;16.70;68.50;;;;;;5053770;28;20213;-55
2022/11/10 07:30:21;;;;;;;2.85;1.40;;;16.80;67.30;;;;;;5052552;28;20731;-55
2022/11/10 07:32:55;;;;;;;1.85;1.30;;;16.90;67.10;;;;;;5053382;28;20183;-55
2022/11/10 07:35:21;;;;;;;2.40;1.33;;;17.00;67.00;;;;;;5053392;28;20179;-52
2022/11/10 07:37:46;;;;;;;1.65;1.13;;;17.00;66.80;;;;;;5052948;28;20229;-55
2022/11/10 07:40:12;;;;;;;6.53;1.70;;;17.20;66.70;;;;;;5053174;28;20198;-56
2022/11/10 07:42:39;;;;;;;2.35;1.45;;;17.20;66.60;;;;;;5054811;28;20228;-55
2022/11/10 07:45:05;;;;;;;3.42;1.67;;;17.30;66.40;;;;;;5060802;28;20207;-56
2022/11/10 07:47:30;;;;;;;2.75;1.50;;;17.40;66.30;;;;;;5065797;28;20179;-54
2022/11/10 07:49:56;;;;;;;4.65;1.65;;;17.60;66.30;;;;;;5054352;28;20179;-69
2022/11/10 07:52:21;;;;;;;6.20;1.70;;;17.60;66.10;;;;;;5053420;28;20217;-72
2022/11/10 07:54:47;;;;;;;3.80;1.65;;;17.70;65.80;;;;;;5053129;28;20596;-70
2022/11/10 07:57:12;;;;;;;5.90;1.80;;;17.80;65.70;;;;;;5052788;28;20642;-71
2022/11/10 07:59:38;;;;;;;3.13;1.48;;;17.90;65.40;;;;;;5052531;28;20261;-75
2022/11/10 08:02:03;;;;;;;6.18;1.67;;;18.00;65.40;;;;;;5052716;28;20269;-70
2022/11/10 08:04:29;;;;;;;6.07;1.80;;;17.90;65.20;;;;;;5051180;28;20199;-69
2022/11/10 08:06:54;;;;;;;6.07;1.90;;;17.80;65.40;;;;;;5052853;28;20253;-69
2022/11/10 08:09:20;;;;;;;3.63;1.67;;;17.90;65.40;;;;;;5052368;28;20266;-68
2022/11/10 08:11:45;;;;;;;2.58;1.27;;;17.90;65.40;;;;;;5052390;28;20329;-71
2022/11/10 08:14:11;;;;;;;5.22;1.95;;;17.90;65.50;;;;;;5052903;28;20172;-68
2022/11/10 08:16:36;;;;;;;5.65;1.80;;;17.90;65.60;;;;;;5052773;28;20202;-70
2022/11/10 08:19:02;;;;;;;4.15;1.60;;;17.90;65.70;;;;;;5051789;28;20233;-67
2022/11/10 08:21:27;;;;;;;7.65;2.33;;;18.00;65.60;;;;;;5053034;28;20176;-67
2022/11/10 08:23:53;;;;;;;6.03;1.70;;;18.00;65.50;;;;;;5052945;28;20262;-68
2022/11/10 08:26:18;;;;;;;4.07;1.75;;;18.00;65.50;;;;;;5051828;28;20193;-68
2022/11/10 08:28:44;;;;;;;4.35;2.00;;;18.00;65.60;;;;;;5052838;28;20535;-68
2022/11/10 08:31:10;;;;;;;3.85;1.88;;;18.00;65.70;;;;;;5052055;28;20216;-68
2022/11/10 08:33:35;;;;;;;4.57;1.70;;;18.00;65.60;;;;;;5052209;28;20244;-68
2022/11/10 08:36:01;;;;;;;6.65;1.90;;;18.00;65.60;;;;;;5052476;28;20236;-68
2022/11/10 08:38:27;;;;;;;3.58;1.73;;;18.00;65.70;;;;;;5052727;28;20175;-67
2022/11/10 08:40:54;;;;;;;2.05;1.38;;;18.00;65.80;;;;;;5051602;28;20183;-66
2022/11/10 08:43:20;;;;;;;3.55;1.35;;;18.10;65.70;;;;;;5052162;28;20641;-66
2022/11/10 08:45:45;;;;;;;4.03;1.65;;;18.10;65.60;;;;;;5052460;28;20222;-66
2022/11/10 08:48:16;;;;;;;7.90;2.03;;;18.10;65.70;;;;;;5050891;28;20266;-67
2022/11/10 08:50:42;;;;;;;3.67;1.65;;;18.10;65.60;;;;;;5052603;28;20207;-67
2022/11/10 08:53:12;;;;;;;3.90;1.40;;;18.10;65.70;;;;;;5052299;28;20189;-67
2022/11/10 08:55:38;;;;;;;4.30;1.80;;;18.10;65.60;;;;;;5051897;28;20250;-67
2022/11/10 08:58:03;;;;;;;3.05;1.42;;;18.10;65.90;;;;;;5052240;28;20565;-67
2022/11/10 09:00:29;;;;;;;5.60;1.67;;;18.20;65.90;;;;;;5055397;28;20190;-67
2022/11/10 09:02:56;;;;;;;5.70;1.83;;;18.20;65.80;;;;;;5055929;28;20175;-68
2022/11/10 09:05:22;;;;;;;5.03;1.95;;;18.20;65.80;;;;;;5055998;28;20607;-67
2022/11/10 09:07:48;;;;;;;2.80;1.35;;;18.20;65.80;;;;;;5055274;28;20207;-67
2022/11/10 09:10:14;;;;;;;4.90;1.80;;;18.10;65.80;;;;;;5055540;28;20231;-67
2022/11/10 09:12:40;;;;;;;3.95;2.08;;;18.00;66.00;;;;;;5056002;28;20642;-66
2022/11/10 09:15:06;;;;;;;4.97;1.55;;;18.10;66.20;;;;;;5055127;28;20179;-67
2022/11/10 09:17:32;;;;;;;3.55;1.70;;;18.00;66.30;;;;;;5056682;28;20179;-66
2022/11/10 09:19:57;;;;;;;5.70;1.88;;;18.00;66.40;;;;;;5055993;28;20220;-67
2022/11/10 09:22:23;;;;;;;3.83;1.83;;;18.00;66.50;;;;;;5055537;28;20171;-66
2022/11/10 09:24:48;;;;;;;3.00;1.40;;;18.00;66.60;;;;;;5056139;28;20175;-66
2022/11/10 09:27:14;;;;;;;5.18;1.80;;;18.00;66.80;;;;;;5055647;28;20167;-68
2022/11/10 09:29:39;;;;;;;2.88;1.70;;;18.00;66.90;;;;;;5055198;28;20178;-68
2022/11/10 09:32:05;;;;;;;3.08;1.70;;;18.00;66.90;;;;;;5055683;28;20211;-68
2022/11/10 09:34:30;;;;;;;3.38;1.48;;;18.00;67.00;;;;;;5055981;28;20175;-67
2022/11/10 09:36:56;;;;;;;4.75;1.50;;;18.00;67.10;;;;;;5055240;28;20202;-67
2022/11/10 09:39:21;;;;;;;4.93;1.60;;;18.00;67.00;;;;;;5055540;28;20625;-67
2022/11/10 09:41:47;;;;;;;3.60;1.42;;;18.00;67.10;;;;;;5055638;28;20167;-66
2022/11/10 09:44:17;;;;;;;3.70;1.70;;;17.90;67.10;;;;;;5054560;28;20186;-67
2022/11/10 09:46:46;;;;;;;5.43;1.63;;;17.90;67.20;;;;;;5054747;28;20233;-68
2022/11/10 09:49:24;;;;;;;4.00;1.65;;;17.90;67.30;;;;;;5054231;28;20237;-69
2022/11/10 09:51:49;;;;;;;4.40;1.58;;;17.80;67.40;;;;;;5054949;28;20238;-70
2022/11/10 09:54:52;;;;;;;2.30;1.50;;;17.80;67.50;;;;;;5054099;28;20205;-68
2022/11/10 09:57:21;;;;;;;3.75;1.90;;;17.80;67.60;;;;;;5054432;28;20707;-69
2022/11/10 09:59:47;;;;;;;4.18;1.70;;;17.80;67.70;;;;;;5054295;28;20219;-69
2022/11/10 10:02:22;;;;;;;2.42;1.35;;;17.70;67.70;;;;;;5053817;28;20589;-68
2022/11/10 10:05:01;;;;;;;3.45;1.50;;;17.70;67.80;;;;;;5054594;28;20226;-69
2022/11/10 10:07:54;;;;;;;4.28;1.67;;;17.70;67.90;;;;;;5055559;28;20266;-69
2022/11/10 10:10:38;;;;;;;3.17;1.77;;;17.70;67.90;;;;;;5054300;28;20254;-70
2022/11/10 10:13:19;;;;;;;3.88;1.75;;;17.60;67.90;;;;;;5053119;28;20179;-68
2022/11/10 10:15:58;;;;;;;4.60;1.75;;;17.60;68.00;;;;;;5053872;28;20179;-69
2022/11/10 10:18:35;;;;;;;4.88;2.25;;;17.60;68.00;;;;;;5053055;28;20838;-68
2022/11/10 10:21:39;;;;;;;3.55;2.05;;;17.60;68.00;;;;;;5054816;28;20250;-69
2022/11/10 10:24:04;;;;;;;2.95;1.52;;;17.50;68.00;;;;;;5049390;28;20320;-69
2022/11/10 10:26:36;;;;;;;2.72;1.60;;;17.60;68.10;;;;;;5053174;28;20257;-69
2022/11/10 10:29:07;;;;;;;4.65;1.60;;;17.50;68.10;;;;;;5054487;28;20268;-69
2022/11/10 10:31:42;;;;;;;4.00;1.75;;;17.50;68.10;;;;;;5053621;28;20341;-71
2022/11/10 10:34:12;;;;;;;3.28;1.70;;;17.50;68.80;;;;;;5053674;28;20539;-68
2022/11/10 10:36:38;;;;;;;4.38;1.67;;;17.50;68.00;;;;;;5053777;28;20198;-69
2022/11/10 10:39:06;;;;;;;4.07;2.03;;;17.50;68.10;;;;;;5054581;28;20626;-69
2022/11/10 10:41:33;;;;;;;3.22;1.48;;;17.60;68.00;;;;;;5052986;28;20184;-66
2022/11/10 10:44:00;;;;;;;3.92;1.75;;;17.60;68.00;;;;;;5053194;28;20175;-68
2022/11/10 10:46:27;;;;;;;3.30;1.67;;;17.50;67.90;;;;;;5052743;28;20178;-70
2022/11/10 10:49:14;;;;;;;5.95;1.90;;;17.50;67.90;;;;;;5054425;28;20214;-70
2022/11/10 10:51:39;;;;;;;2.90;1.60;;;17.50;67.90;;;;;;5054365;28;20611;-70
2022/11/10 10:54:21;;;;;;;3.72;1.80;;;17.50;67.90;;;;;;5053412;28;20178;-70
2022/11/10 10:56:46;;;;;;;2.90;1.75;;;17.50;67.90;;;;;;5053212;28;20183;-69
2022/11/10 10:59:20;;;;;;;4.50;2.00;;;17.50;68.00;;;;;;5054032;28;20182;-69
2022/11/10 11:01:45;;;;;;;4.25;1.85;;;17.60;68.00;;;;;;5052679;28;20195;-70
2022/11/10 11:04:34;;;;;;;2.83;1.50;;;17.60;67.90;;;;;;5052826;28;20207;-70
2022/11/10 11:07:04;;;;;;;5.05;2.03;;;17.60;68.00;;;;;;5053982;28;20707;-70
2022/11/10 11:09:41;;;;;;;4.88;2.10;;;17.60;67.80;;;;;;5053129;28;20171;-70
2022/11/10 11:12:10;;;;;;;2.75;1.50;;;17.60;67.80;;;;;;5053836;28;20214;-69
2022/11/10 11:14:36;;;;;;;2.88;1.20;;;17.50;67.70;;;;;;5052246;28;20179;-69
2022/11/10 11:17:20;;;;;;;4.15;1.58;;;17.70;67.80;;;;;;5053716;28;20583;-70
2022/11/10 11:19:46;;;;;;;2.95;1.48;;;17.70;67.80;;;;;;5053918;28;20202;-69
2022/11/10 11:22:45;;;;;;;3.30;1.70;;;17.70;67.60;;;;;;5051489;28;20392;-69
2022/11/10 11:25:32;;;;;;;5.72;2.05;;;17.70;67.50;;;;;;5052714;28;20203;-71
2022/11/10 11:27:59;;;;;;;3.22;1.63;;;17.80;67.50;;;;;;5052418;28;20179;-71
2022/11/10 11:30:30;;;;;;;2.22;1.23;;;17.80;67.30;;;;;;5052822;28;20186;-71
2022/11/10 11:33:31;;;;;;;2.70;1.38;;;17.80;67.40;;;;;;5052632;28;20179;-71
2022/11/10 11:35:59;;;;;;;2.80;1.48;;;17.90;67.40;;;;;;5051767;28;20210;-69
2022/11/10 11:38:54;;;;;;;4.13;1.23;;;17.80;67.40;;;;;;5053791;28;20180;-69
2022/11/10 11:41:41;;;;;;;4.93;1.80;;;17.90;67.50;;;;;;5044940;28;20236;-69
2022/11/10 11:44:24;;;;;;;4.43;1.65;;;17.90;67.50;;;;;;5051358;28;20175;-69
2022/11/10 11:47:00;;;;;;;3.58;1.70;;;17.90;67.70;;;;;;5052225;28;20185;-69
2022/11/10 11:49:48;;;;;;;2.53;1.27;;;17.90;67.60;;;;;;5052412;28;20205;-73
2022/11/10 11:52:26;;;;;;;3.63;1.58;;;17.90;67.50;;;;;;5049064;28;20230;-70
2022/11/10 11:55:09;;;;;;;3.25;1.30;;;17.90;67.40;;;;;;5052126;28;20183;-68
2022/11/10 11:57:53;;;;;;;3.33;1.27;;;17.90;67.50;;;;;;5051458;28;20614;-68
2022/11/10 12:00:20;;;;;;;5.15;1.90;;;17.90;67.50;;;;;;5051819;28;20183;-68
2022/11/10 12:03:17;;;;;;;2.70;1.50;;;17.90;67.40;;;;;;5051677;28;20262;-67
2022/11/10 12:05:55;;;;;;;4.72;1.50;;;17.90;67.40;;;;;;5052210;28;20175;-70
2022/11/10 12:08:31;;;;;;;4.28;1.70;;;18.00;67.40;;;;;;5051502;28;20641;-69
2022/11/10 12:11:21;;;;;;;2.35;1.45;;;17.90;67.40;;;;;;5050647;28;20238;-69
2022/11/10 12:14:06;;;;;;;5.05;1.80;;;17.90;67.50;;;;;;5053302;28;20186;-68
2022/11/10 12:16:35;;;;;;;2.80;1.30;;;18.00;67.50;;;;;;5051725;28;20179;-71
2022/11/10 12:19:30;;;;;;;3.10;1.70;;;18.00;67.40;;;;;;5051788;28;20626;-69
2022/11/10 12:22:08;;;;;;;3.05;1.40;;;18.00;67.40;;;;;;5053614;28;20627;-68
2022/11/10 12:25:12;;;;;;;2.78;1.33;;;18.00;67.50;;;;;;5052890;28;20240;-71
2022/11/10 12:27:48;;;;;;;1.95;1.17;;;18.00;67.50;;;;;;5051643;28;20179;-69
2022/11/10 12:30:14;;;;;;;2.20;1.45;;;18.00;67.40;;;;;;5051214;28;20210;-68
2022/11/10 12:32:53;;;;;;;5.55;1.73;;;18.00;67.40;;;;;;5050796;28;20191;-67
2022/11/10 12:35:21;;;;;;;4.60;1.48;;;18.00;67.30;;;;;;5050964;28;20209;-67
2022/11/10 12:37:51;;;;;;;2.53;1.55;;;18.00;67.30;;;;;;5051790;28;20175;-68
2022/11/10 12:40:19;;;;;;;2.40;1.77;;;18.00;67.40;;;;;;5051911;28;20179;-68
2022/11/10 12:42:50;;;;;;;2.58;1.48;;;18.00;67.50;;;;;;5051638;28;20167;-69
2022/11/10 12:45:18;;;;;;;4.10;1.55;;;17.90;67.70;;;;;;5051127;28;20179;-69
2022/11/10 12:47:45;;;;;;;2.75;1.30;;;17.90;67.80;;;;;;5051872;28;20167;-70
2022/11/10 12:50:36;;;;;;;5.78;1.63;;;17.90;67.90;;;;;;5052385;28;20245;-70
2022/11/10 12:53:15;;;;;;;4.15;1.30;;;17.90;67.80;;;;;;5050592;28;20209;-68
2022/11/10 12:55:51;;;;;;;2.38;1.42;;;17.80;67.90;;;;;;5051414;28;20163;-69
2022/11/10 12:58:17;;;;;;;4.13;1.38;;;17.80;67.90;;;;;;5050913;28;20529;-70
2022/11/10 13:01:03;;;;;;;5.35;1.50;;;17.80;68.00;;;;;;5050544;28;20225;-71
2022/11/10 13:03:33;;;;;;;4.28;2.00;;;17.80;68.00;;;;;;5051282;28;20191;-71
2022/11/10 13:06:03;;;;;;;5.22;1.48;;;17.70;68.00;;;;;;5051159;28;20474;-70
2022/11/10 13:08:55;;;;;;;3.08;1.70;;;17.70;68.10;;;;;;5050710;28;20214;-69
2022/11/10 13:11:33;;;;;;;4.85;1.40;;;17.70;68.00;;;;;;5048604;28;20698;-69